sensor_id;sensor_type;location;lat;lon;timestamp;pressure;altitude;pressure_sealevel;temperature;humidity
10127;BME280;13080;42.608;23.362;2023-01-27T00:02:08;150636.44;;;-1.88;100.00
10127;BME280;13080;42.608;23.362;2023-01-27T00:04:34;150627.44;;;-1.91;100.00
10127;BME280;13080;42.608;23.362;2023-01-27T00:07:02;150677.56;;;-1.71;100.00
10127;BME280;13080;42.608;23.362;2023-01-27T00:09:29;150669.88;;;-1.74;100.00
10127;BME280;13080;42.608;23.362;2023-01-27T00:11:56;150662.13;;;-1.77;100.00
10127;BME280;13080;42.608;23.362;2023-01-27T00:14:40;150664.72;;;-1.76;100.00
10127;BME280;13080;42.608;23.362;2023-01-27T00:17:07;150639.00;;;-1.86;100.00
10127;BME280;13080;42.608;23.362;2023-01-27T00:19:33;150655.72;;;-1.80;100.00
10127;BME280;13080;42.608;23.362;2023-01-27T00:22:00;150654.44;;;-1.80;100.00
10127;BME280;13080;42.608;23.362;2023-01-27T00:24:46;150659.59;;;-1.78;100.00
10127;BME280;13080;42.608;23.362;2023-01-27T00:27:13;150653.16;;;-1.81;100.00
10127;BME280;13080;42.608;23.362;2023-01-27T00:29:39;150649.28;;;-1.82;100.00
10127;BME280;13080;42.608;23.362;2023-01-27T00:32:06;150632.56;;;-1.89;100.00
10127;BME280;13080;42.608;23.362;2023-01-27T00:34:50;150641.59;;;-1.85;100.00
10127;BME280;13080;42.608;23.362;2023-01-27T00:37:18;150636.44;;;-1.88;100.00
10127;BME280;13080;42.608;23.362;2023-01-27T00:39:46;150641.59;;;-1.85;100.00
10127;BME280;13080;42.608;23.362;2023-01-27T00:42:13;150655.72;;;-1.80;100.00
10127;BME280;13080;42.608;23.362;2023-01-27T00:44:40;150648.00;;;-1.83;100.00
10127;BME280;13080;42.608;23.362;2023-01-27T00:47:27;150641.59;;;-1.85;100.00
10127;BME280;13080;42.608;23.362;2023-01-27T00:49:54;150649.28;;;-1.82;100.00
10127;BME280;13080;42.608;23.362;2023-01-27T00:52:20;150639.00;;;-1.86;100.00
10127;BME280;13080;42.608;23.362;2023-01-27T00:54:48;150639.00;;;-1.86;100.00
10127;BME280;13080;42.608;23.362;2023-01-27T00:57:15;150642.88;;;-1.85;100.00
10127;BME280;13080;42.608;23.362;2023-01-27T00:59:42;150632.56;;;-1.89;100.00
10127;BME280;13080;42.608;23.362;2023-01-27T01:02:09;150648.00;;;-1.83;100.00
10127;BME280;13080;42.608;23.362;2023-01-27T01:04:36;150653.16;;;-1.81;100.00
10127;BME280;13080;42.608;23.362;2023-01-27T01:07:03;150664.72;;;-1.76;100.00
10127;BME280;13080;42.608;23.362;2023-01-27T01:09:30;150644.16;;;-1.84;100.00
10127;BME280;13080;42.608;23.362;2023-01-27T01:11:58;150615.88;;;-1.96;100.00
10127;BME280;13080;42.608;23.362;2023-01-27T01:14:25;150599.16;;;-2.02;100.00
10127;BME280;13080;42.608;23.362;2023-01-27T01:16:51;150599.16;;;-2.02;100.00
10127;BME280;13080;42.608;23.362;2023-01-27T01:19:20;150591.44;;;-2.05;100.00
10127;BME280;13080;42.608;23.362;2023-01-27T01:21:47;150591.44;;;-2.05;100.00
10127;BME280;13080;42.608;23.362;2023-01-27T01:24:14;150599.16;;;-2.02;100.00
10127;BME280;13080;42.608;23.362;2023-01-27T01:26:41;150613.31;;;-1.97;100.00
10127;BME280;13080;42.608;23.362;2023-01-27T01:29:09;150600.41;;;-2.02;100.00
10127;BME280;13080;42.608;23.362;2023-01-27T01:31:36;150617.13;;;-1.95;100.00
10127;BME280;13080;42.608;23.362;2023-01-27T01:34:04;150621.00;;;-1.94;100.00
10127;BME280;13080;42.608;23.362;2023-01-27T01:36:31;150628.72;;;-1.91;100.00
10127;BME280;13080;42.608;23.362;2023-01-27T01:38:57;150649.28;;;-1.82;100.00
10127;BME280;13080;42.608;23.362;2023-01-27T01:41:25;150650.56;;;-1.82;100.00
10127;BME280;13080;42.608;23.362;2023-01-27T01:43:52;150630.03;;;-1.90;100.00
10127;BME280;13080;42.608;23.362;2023-01-27T01:46:20;150627.44;;;-1.91;100.00
10127;BME280;13080;42.608;23.362;2023-01-27T01:48:48;150626.16;;;-1.92;100.00
10127;BME280;13080;42.608;23.362;2023-01-27T01:51:21;150648.00;;;-1.83;100.00
10127;BME280;13080;42.608;23.362;2023-01-27T01:53:52;150635.19;;;-1.88;100.00
10127;BME280;13080;42.608;23.362;2023-01-27T01:56:23;150636.44;;;-1.88;100.00
10127;BME280;13080;42.608;23.362;2023-01-27T01:58:51;150660.84;;;-1.78;100.00
10127;BME280;13080;42.608;23.362;2023-01-27T02:01:21;150631.31;;;-1.90;100.00
10127;BME280;13080;42.608;23.362;2023-01-27T02:03:50;150637.72;;;-1.87;100.00
10127;BME280;13080;42.608;23.362;2023-01-27T02:06:18;150612.03;;;-1.97;100.00
10127;BME280;13080;42.608;23.362;2023-01-27T02:08:48;150613.31;;;-1.97;100.00
10127;BME280;13080;42.608;23.362;2023-01-27T02:11:16;150641.59;;;-1.85;100.00
10127;BME280;13080;42.608;23.362;2023-01-27T02:13:44;150621.00;;;-1.94;100.00
10127;BME280;13080;42.608;23.362;2023-01-27T02:16:11;150615.88;;;-1.96;100.00
10127;BME280;13080;42.608;23.362;2023-01-27T02:18:40;150613.31;;;-1.97;100.00
10127;BME280;13080;42.608;23.362;2023-01-27T02:21:08;150626.16;;;-1.92;100.00
10127;BME280;13080;42.608;23.362;2023-01-27T02:23:45;150624.88;;;-1.92;100.00
10127;BME280;13080;42.608;23.362;2023-01-27T02:26:18;150612.03;;;-1.97;100.00
10127;BME280;13080;42.608;23.362;2023-01-27T02:28:52;150621.00;;;-1.94;100.00
10127;BME280;13080;42.608;23.362;2023-01-27T02:31:20;150599.16;;;-2.02;100.00
10127;BME280;13080;42.608;23.362;2023-01-27T02:33:47;150590.19;;;-2.06;100.00
10127;BME280;13080;42.608;23.362;2023-01-27T02:36:15;150579.88;;;-2.10;100.00
10127;BME280;13080;42.608;23.362;2023-01-27T02:38:46;150585.03;;;-2.08;100.00
10127;BME280;13080;42.608;23.362;2023-01-27T02:41:19;150574.75;;;-2.12;100.00
10127;BME280;13080;42.608;23.362;2023-01-27T02:43:46;150582.44;;;-2.09;100.00
10127;BME280;13080;42.608;23.362;2023-01-27T02:46:14;150583.72;;;-2.09;100.00
10127;BME280;13080;42.608;23.362;2023-01-27T02:48:41;150573.47;;;-2.13;100.00
10127;BME280;13080;42.608;23.362;2023-01-27T02:51:10;150581.16;;;-2.10;100.00
10127;BME280;13080;42.608;23.362;2023-01-27T02:53:37;150574.75;;;-2.12;100.00
10127;BME280;13080;42.608;23.362;2023-01-27T02:56:04;150597.88;;;-2.03;100.00
10127;BME280;13080;42.608;23.362;2023-01-27T02:58:32;150591.44;;;-2.05;100.00
10127;BME280;13080;42.608;23.362;2023-01-27T03:00:59;150597.88;;;-2.03;100.00
10127;BME280;13080;42.608;23.362;2023-01-27T03:03:26;150597.88;;;-2.03;100.00
10127;BME280;13080;42.608;23.362;2023-01-27T03:05:53;150605.56;;;-2.00;100.00
10127;BME280;13080;42.608;23.362;2023-01-27T03:08:19;150591.44;;;-2.05;100.00
10127;BME280;13080;42.608;23.362;2023-01-27T03:10:49;150599.16;;;-2.02;100.00
10127;BME280;13080;42.608;23.362;2023-01-27T03:13:19;150608.16;;;-1.99;100.00
10127;BME280;13080;42.608;23.362;2023-01-27T03:15:47;150618.47;;;-1.95;100.00
10127;BME280;13080;42.608;23.362;2023-01-27T03:18:32;150653.16;;;-1.81;100.00
10127;BME280;13080;42.608;23.362;2023-01-27T03:21:00;150636.44;;;-1.88;100.00
10127;BME280;13080;42.608;23.362;2023-01-27T03:23:27;150635.19;;;-1.88;100.00
10127;BME280;13080;42.608;23.362;2023-01-27T03:25:54;150633.84;;;-1.89;100.00
10127;BME280;13080;42.608;23.362;2023-01-27T03:28:21;150657.03;;;-1.79;100.00
10127;BME280;13080;42.608;23.362;2023-01-27T03:30:49;150642.88;;;-1.85;100.00
10127;BME280;13080;42.608;23.362;2023-01-27T03:33:16;150649.28;;;-1.82;100.00
10127;BME280;13080;42.608;23.362;2023-01-27T03:35:42;150615.88;;;-1.96;100.00
10127;BME280;13080;42.608;23.362;2023-01-27T03:38:14;150599.16;;;-2.02;100.00
10127;BME280;13080;42.608;23.362;2023-01-27T03:40:59;150579.88;;;-2.10;100.00
10127;BME280;13080;42.608;23.362;2023-01-27T03:43:43;150560.56;;;-2.18;100.00
10127;BME280;13080;42.608;23.362;2023-01-27T03:46:28;150558.03;;;-2.19;100.00
10127;BME280;13080;42.608;23.362;2023-01-27T03:48:57;150551.63;;;-2.21;100.00
10127;BME280;13080;42.608;23.362;2023-01-27T03:51:25;150554.16;;;-2.20;100.00
10127;BME280;13080;42.608;23.362;2023-01-27T03:53:52;150545.19;;;-2.24;100.00
10127;BME280;13080;42.608;23.362;2023-01-27T03:56:20;150551.63;;;-2.21;100.00
10127;BME280;13080;42.608;23.362;2023-01-27T03:58:48;150534.91;;;-2.28;100.00
10127;BME280;13080;42.608;23.362;2023-01-27T04:01:17;150556.75;;;-2.19;100.00
10127;BME280;13080;42.608;23.362;2023-01-27T04:03:46;150555.44;;;-2.20;100.00
10127;BME280;13080;42.608;23.362;2023-01-27T04:06:32;150558.03;;;-2.19;100.00
10127;BME280;13080;42.608;23.362;2023-01-27T04:09:21;150577.28;;;-2.11;100.00
10127;BME280;13080;42.608;23.362;2023-01-27T04:11:48;150606.88;;;-1.99;100.00
10127;BME280;13080;42.608;23.362;2023-01-27T04:14:24;150576.00;;;-2.12;100.00
10127;BME280;13080;42.608;23.362;2023-01-27T04:16:52;150579.88;;;-2.10;100.00
10127;BME280;13080;42.608;23.362;2023-01-27T04:19:21;150588.84;;;-2.06;100.00
10127;BME280;13080;42.608;23.362;2023-01-27T04:21:48;150578.63;;;-2.11;100.00
10127;BME280;13080;42.608;23.362;2023-01-27T04:24:16;150564.44;;;-2.16;100.00
10127;BME280;13080;42.608;23.362;2023-01-27T04:26:48;150568.31;;;-2.15;100.00
10127;BME280;13080;42.608;23.362;2023-01-27T04:29:15;150563.19;;;-2.17;100.00
10127;BME280;13080;42.608;23.362;2023-01-27T04:31:43;150559.31;;;-2.18;100.00
10127;BME280;13080;42.608;23.362;2023-01-27T04:34:11;150574.75;;;-2.12;100.00
10127;BME280;13080;42.608;23.362;2023-01-27T04:36:39;150573.47;;;-2.13;100.00
10127;BME280;13080;42.608;23.362;2023-01-27T04:39:07;150569.59;;;-2.14;100.00
10127;BME280;13080;42.608;23.362;2023-01-27T04:41:34;150561.91;;;-2.17;100.00
10127;BME280;13080;42.608;23.362;2023-01-27T04:44:03;150590.19;;;-2.06;100.00
10127;BME280;13080;42.608;23.362;2023-01-27T04:46:30;150583.72;;;-2.09;100.00
10127;BME280;13080;42.608;23.362;2023-01-27T04:48:57;150583.72;;;-2.09;100.00
10127;BME280;13080;42.608;23.362;2023-01-27T04:51:25;150577.28;;;-2.11;100.00
10127;BME280;13080;42.608;23.362;2023-01-27T04:53:54;150579.88;;;-2.10;100.00
10127;BME280;13080;42.608;23.362;2023-01-27T04:56:23;150564.44;;;-2.16;100.00
10127;BME280;13080;42.608;23.362;2023-01-27T04:58:51;150541.31;;;-2.25;100.00
10127;BME280;13080;42.608;23.362;2023-01-27T05:01:18;150541.31;;;-2.25;100.00
10127;BME280;13080;42.608;23.362;2023-01-27T05:03:45;150558.03;;;-2.19;100.00
10127;BME280;13080;42.608;23.362;2023-01-27T05:06:12;150547.75;;;-2.23;100.00
10127;BME280;13080;42.608;23.362;2023-01-27T05:08:39;150538.72;;;-2.26;100.00
10127;BME280;13080;42.608;23.362;2023-01-27T05:11:08;150545.19;;;-2.24;100.00
10127;BME280;13080;42.608;23.362;2023-01-27T05:13:35;150563.19;;;-2.17;100.00
10127;BME280;13080;42.608;23.362;2023-01-27T05:16:09;150549.00;;;-2.22;100.00
10127;BME280;13080;42.608;23.362;2023-01-27T05:18:37;150554.16;;;-2.20;100.00
10127;BME280;13080;42.608;23.362;2023-01-27T05:21:05;150577.28;;;-2.11;100.00
10127;BME280;13080;42.608;23.362;2023-01-27T05:23:32;150570.88;;;-2.14;100.00
10127;BME280;13080;42.608;23.362;2023-01-27T05:26:09;150572.16;;;-2.13;100.00
10127;BME280;13080;42.608;23.362;2023-01-27T05:28:39;150586.31;;;-2.07;100.00
10127;BME280;13080;42.608;23.362;2023-01-27T05:31:08;150597.88;;;-2.03;100.00
10127;BME280;13080;42.608;23.362;2023-01-27T05:33:35;150586.31;;;-2.07;100.00
10127;BME280;13080;42.608;23.362;2023-01-27T05:36:04;150587.56;;;-2.07;100.00
10127;BME280;13080;42.608;23.362;2023-01-27T05:38:31;150591.44;;;-2.05;100.00
10127;BME280;13080;42.608;23.362;2023-01-27T05:40:59;150578.63;;;-2.11;100.00
10127;BME280;13080;42.608;23.362;2023-01-27T05:43:29;150560.56;;;-2.18;100.00
10127;BME280;13080;42.608;23.362;2023-01-27T05:46:01;150574.75;;;-2.12;100.00
10127;BME280;13080;42.608;23.362;2023-01-27T05:48:28;150578.63;;;-2.11;100.00
10127;BME280;13080;42.608;23.362;2023-01-27T05:50:57;150564.44;;;-2.16;100.00
10127;BME280;13080;42.608;23.362;2023-01-27T05:53:24;150576.00;;;-2.12;100.00
10127;BME280;13080;42.608;23.362;2023-01-27T05:55:51;150587.56;;;-2.07;100.00
10127;BME280;13080;42.608;23.362;2023-01-27T05:58:18;150594.00;;;-2.04;100.00
10127;BME280;13080;42.608;23.362;2023-01-27T06:00:47;150603.03;;;-2.01;100.00
10127;BME280;13080;42.608;23.362;2023-01-27T06:03:14;150564.44;;;-2.16;100.00
10127;BME280;13080;42.608;23.362;2023-01-27T06:05:51;150585.03;;;-2.08;100.00
10127;BME280;13080;42.608;23.362;2023-01-27T06:08:18;150610.72;;;-1.98;100.00
10127;BME280;13080;42.608;23.362;2023-01-27T06:10:45;150613.31;;;-1.97;100.00
10127;BME280;13080;42.608;23.362;2023-01-27T06:13:12;150618.47;;;-1.95;100.00
10127;BME280;13080;42.608;23.362;2023-01-27T06:15:40;150651.88;;;-1.81;100.00
10127;BME280;13080;42.608;23.362;2023-01-27T06:18:09;150631.31;;;-1.90;100.00
10127;BME280;13080;42.608;23.362;2023-01-27T06:20:36;150651.88;;;-1.81;100.00
10127;BME280;13080;42.608;23.362;2023-01-27T06:23:04;150639.00;;;-1.86;100.00
10127;BME280;13080;42.608;23.362;2023-01-27T06:25:35;150632.56;;;-1.89;100.00
10127;BME280;13080;42.608;23.362;2023-01-27T06:28:03;150658.31;;;-1.79;100.00
10127;BME280;13080;42.608;23.362;2023-01-27T06:30:30;150668.59;;;-1.75;100.00
10127;BME280;13080;42.608;23.362;2023-01-27T06:32:57;150693.03;;;-1.65;100.00
10127;BME280;13080;42.608;23.362;2023-01-27T06:35:25;150695.56;;;-1.64;100.00
10127;BME280;13080;42.608;23.362;2023-01-27T06:37:52;150703.31;;;-1.61;100.00
10127;BME280;13080;42.608;23.362;2023-01-27T06:40:19;150713.63;;;-1.57;100.00
10127;BME280;13080;42.608;23.362;2023-01-27T06:42:45;150707.13;;;-1.59;100.00
10127;BME280;13080;42.608;23.362;2023-01-27T06:45:12;150705.88;;;-1.60;100.00
10127;BME280;13080;42.608;23.362;2023-01-27T06:47:39;150704.59;;;-1.60;100.00
10127;BME280;13080;42.608;23.362;2023-01-27T06:50:07;150685.31;;;-1.68;100.00
10127;BME280;13080;42.608;23.362;2023-01-27T06:52:36;150682.72;;;-1.69;100.00
10127;BME280;13080;42.608;23.362;2023-01-27T06:55:04;150694.28;;;-1.64;100.00
10127;BME280;13080;42.608;23.362;2023-01-27T06:57:31;150726.47;;;-1.52;100.00
10127;BME280;13080;42.608;23.362;2023-01-27T06:59:58;150753.47;;;-1.41;100.00
10127;BME280;13080;42.608;23.362;2023-01-27T07:02:24;150777.91;;;-1.31;100.00
10127;BME280;13080;42.608;23.362;2023-01-27T07:04:51;150775.34;;;-1.32;100.00
10127;BME280;13080;42.608;23.362;2023-01-27T07:07:20;150766.31;;;-1.36;100.00
10127;BME280;13080;42.608;23.362;2023-01-27T07:09:48;150766.31;;;-1.36;100.00
10127;BME280;13080;42.608;23.362;2023-01-27T07:12:15;150784.31;;;-1.29;100.00
10127;BME280;13080;42.608;23.362;2023-01-27T07:14:41;150811.34;;;-1.18;100.00
10127;BME280;13080;42.608;23.362;2023-01-27T07:17:08;150794.63;;;-1.24;100.00
10127;BME280;13080;42.608;23.362;2023-01-27T07:19:35;150811.34;;;-1.18;100.00
10127;BME280;13080;42.608;23.362;2023-01-27T07:22:02;150822.94;;;-1.13;100.00
10127;BME280;13080;42.608;23.362;2023-01-27T07:24:28;150837.09;;;-1.08;100.00
10127;BME280;13080;42.608;23.362;2023-01-27T07:26:57;150795.91;;;-1.24;100.00
10127;BME280;13080;42.608;23.362;2023-01-27T07:29:23;150816.50;;;-1.16;100.00
10127;BME280;13080;42.608;23.362;2023-01-27T07:31:50;150820.38;;;-1.14;100.00
10127;BME280;13080;42.608;23.362;2023-01-27T07:34:17;150834.50;;;-1.09;100.00
10127;BME280;13080;42.608;23.362;2023-01-27T07:36:44;150846.06;;;-1.04;100.00
10127;BME280;13080;42.608;23.362;2023-01-27T07:39:11;150862.81;;;-0.97;100.00
10127;BME280;13080;42.608;23.362;2023-01-27T07:41:38;150879.53;;;-0.91;100.00
10127;BME280;13080;42.608;23.362;2023-01-27T07:44:06;150901.41;;;-0.82;100.00
10127;BME280;13080;42.608;23.362;2023-01-27T07:46:32;150884.69;;;-0.89;100.00
10127;BME280;13080;42.608;23.362;2023-01-27T07:48:59;150862.81;;;-0.97;100.00
10127;BME280;13080;42.608;23.362;2023-01-27T07:51:26;150889.84;;;-0.87;100.00
10127;BME280;13080;42.608;23.362;2023-01-27T07:53:53;150876.97;;;-0.92;100.00
10127;BME280;13080;42.608;23.362;2023-01-27T07:56:20;150919.41;;;-0.75;100.00
10127;BME280;13080;42.608;23.362;2023-01-27T07:58:46;150934.88;;;-0.69;100.00
10127;BME280;13080;42.608;23.362;2023-01-27T08:01:15;150927.16;;;-0.72;100.00
10127;BME280;13080;42.608;23.362;2023-01-27T08:03:41;150929.72;;;-0.71;100.00
10127;BME280;13080;42.608;23.362;2023-01-27T08:06:10;150927.16;;;-0.72;100.00
10127;BME280;13080;42.608;23.362;2023-01-27T08:08:37;150954.16;;;-0.61;100.00
10127;BME280;13080;42.608;23.362;2023-01-27T08:11:06;150952.88;;;-0.61;100.00
10127;BME280;13080;42.608;23.362;2023-01-27T08:13:34;150931.00;;;-0.70;100.00
10127;BME280;13080;42.608;23.362;2023-01-27T08:16:03;150914.28;;;-0.77;100.00
10127;BME280;13080;42.608;23.362;2023-01-27T08:18:32;150900.13;;;-0.82;100.00
10127;BME280;13080;42.608;23.362;2023-01-27T08:20:59;150861.53;;;-0.98;100.00
10127;BME280;13080;42.608;23.362;2023-01-27T08:23:26;150847.34;;;-1.03;100.00
10127;BME280;13080;42.608;23.362;2023-01-27T08:25:55;150842.19;;;-1.06;100.00
10127;BME280;13080;42.608;23.362;2023-01-27T08:28:23;150858.94;;;-0.99;100.00
10127;BME280;13080;42.608;23.362;2023-01-27T08:30:50;150803.66;;;-1.21;100.00
10127;BME280;13080;42.608;23.362;2023-01-27T08:33:18;150825.47;;;-1.12;100.00
10127;BME280;13080;42.608;23.362;2023-01-27T08:35:47;150821.66;;;-1.14;100.00
10127;BME280;13080;42.608;23.362;2023-01-27T08:38:16;150812.63;;;-1.17;100.00
10127;BME280;13080;42.608;23.362;2023-01-27T08:40:45;150786.94;;;-1.28;100.00
10127;BME280;13080;42.608;23.362;2023-01-27T08:43:13;150826.78;;;-1.12;100.00
10127;BME280;13080;42.608;23.362;2023-01-27T08:45:41;150848.69;;;-1.03;100.00
10127;BME280;13080;42.608;23.362;2023-01-27T08:48:08;150833.22;;;-1.09;100.00
10127;BME280;13080;42.608;23.362;2023-01-27T08:50:35;150844.81;;;-1.05;100.00
10127;BME280;13080;42.608;23.362;2023-01-27T08:53:03;150874.38;;;-0.93;100.00
10127;BME280;13080;42.608;23.362;2023-01-27T08:55:32;150878.25;;;-0.91;100.00
10127;BME280;13080;42.608;23.362;2023-01-27T08:57:58;150878.25;;;-0.91;100.00
10127;BME280;13080;42.608;23.362;2023-01-27T09:00:27;150888.56;;;-0.87;100.00
10127;BME280;13080;42.608;23.362;2023-01-27T09:02:54;150896.25;;;-0.84;100.00
10127;BME280;13080;42.608;23.362;2023-01-27T09:05:21;150894.97;;;-0.85;100.00
10127;BME280;13080;42.608;23.362;2023-01-27T09:07:48;150902.69;;;-0.81;100.00
10127;BME280;13080;42.608;23.362;2023-01-27T09:10:16;150887.22;;;-0.88;100.00
10127;BME280;13080;42.608;23.362;2023-01-27T09:12:43;150874.38;;;-0.93;100.00
10127;BME280;13080;42.608;23.362;2023-01-27T09:15:11;150907.84;;;-0.79;100.00
10127;BME280;13080;42.608;23.362;2023-01-27T09:17:38;150909.13;;;-0.79;100.00
10127;BME280;13080;42.608;23.362;2023-01-27T09:20:06;150933.59;;;-0.69;100.00
10127;BME280;13080;42.608;23.362;2023-01-27T09:22:33;150892.38;;;-0.86;100.00
10127;BME280;13080;42.608;23.362;2023-01-27T09:25:01;150884.69;;;-0.89;100.00
10127;BME280;13080;42.608;23.362;2023-01-27T09:27:29;150876.97;;;-0.92;100.00
10127;BME280;13080;42.608;23.362;2023-01-27T09:29:56;150811.34;;;-1.18;100.00
10127;BME280;13080;42.608;23.362;2023-01-27T09:32:23;150860.25;;;-0.98;100.00
10127;BME280;13080;42.608;23.362;2023-01-27T09:34:49;150830.63;;;-1.10;100.00
10127;BME280;13080;42.608;23.362;2023-01-27T09:37:16;150830.63;;;-1.10;100.00
10127;BME280;13080;42.608;23.362;2023-01-27T09:39:47;150851.22;;;-1.02;100.00
10127;BME280;13080;42.608;23.362;2023-01-27T09:42:28;150833.22;;;-1.09;100.00
10127;BME280;13080;42.608;23.362;2023-01-27T09:45:32;150885.97;;;-0.88;100.00
10127;BME280;13080;42.608;23.362;2023-01-27T09:48:18;150891.13;;;-0.86;100.00
10127;BME280;13080;42.608;23.362;2023-01-27T09:50:51;150891.13;;;-0.86;100.00
10127;BME280;13080;42.608;23.362;2023-01-27T09:53:52;150864.06;;;-0.97;100.00
10127;BME280;13080;42.608;23.362;2023-01-27T09:56:31;150893.72;;;-0.85;100.00
10127;BME280;13080;42.608;23.362;2023-01-27T09:59:19;150907.84;;;-0.79;100.00
10127;BME280;13080;42.608;23.362;2023-01-27T10:01:57;150929.72;;;-0.71;100.00
10127;BME280;13080;42.608;23.362;2023-01-27T10:04:39;150892.38;;;-0.86;100.00
10127;BME280;13080;42.608;23.362;2023-01-27T10:07:20;150898.81;;;-0.83;100.00
10127;BME280;13080;42.608;23.362;2023-01-27T10:10:01;150911.72;;;-0.78;100.00
10127;BME280;13080;42.608;23.362;2023-01-27T10:12:40;150905.28;;;-0.80;100.00
10127;BME280;13080;42.608;23.362;2023-01-27T10:15:19;150910.44;;;-0.78;100.00
10127;BME280;13080;42.608;23.362;2023-01-27T10:17:56;150893.72;;;-0.85;100.00
10127;BME280;13080;42.608;23.362;2023-01-27T10:20:29;150873.09;;;-0.93;100.00
10127;BME280;13080;42.608;23.362;2023-01-27T10:23:13;150858.94;;;-0.99;100.00
10127;BME280;13080;42.608;23.362;2023-01-27T10:25:52;150887.22;;;-0.88;100.00
10127;BME280;13080;42.608;23.362;2023-01-27T10:28:23;150867.97;;;-0.95;100.00
10127;BME280;13080;42.608;23.362;2023-01-27T10:30:58;150869.22;;;-0.95;100.00
10127;BME280;13080;42.608;23.362;2023-01-27T10:33:36;150870.50;;;-0.94;100.00
10127;BME280;13080;42.608;23.362;2023-01-27T10:36:08;150864.06;;;-0.97;100.00
10127;BME280;13080;42.608;23.362;2023-01-27T10:38:40;150867.97;;;-0.95;100.00
10127;BME280;13080;42.608;23.362;2023-01-27T10:41:20;150848.69;;;-1.03;100.00
10127;BME280;13080;42.608;23.362;2023-01-27T10:44:02;150815.22;;;-1.16;100.00
10127;BME280;13080;42.608;23.362;2023-01-27T10:46:39;150831.94;;;-1.10;100.00
10127;BME280;13080;42.608;23.362;2023-01-27T10:49:18;150788.19;;;-1.27;100.00
10127;BME280;13080;42.608;23.362;2023-01-27T10:51:51;150812.63;;;-1.17;100.00
10127;BME280;13080;42.608;23.362;2023-01-27T10:54:25;150821.66;;;-1.14;100.00
10127;BME280;13080;42.608;23.362;2023-01-27T10:57:00;150830.63;;;-1.10;100.00
10127;BME280;13080;42.608;23.362;2023-01-27T10:59:32;150824.19;;;-1.13;100.00
10127;BME280;13080;42.608;23.362;2023-01-27T11:02:12;150822.94;;;-1.13;100.00
10127;BME280;13080;42.608;23.362;2023-01-27T11:04:43;150847.34;;;-1.03;100.00
10127;BME280;13080;42.608;23.362;2023-01-27T11:07:15;150864.06;;;-0.97;100.00
10127;BME280;13080;42.608;23.362;2023-01-27T11:09:47;150842.19;;;-1.06;100.00
10127;BME280;13080;42.608;23.362;2023-01-27T11:12:27;150866.69;;;-0.96;100.00
10127;BME280;13080;42.608;23.362;2023-01-27T11:14:55;150853.78;;;-1.01;100.00
10127;BME280;13080;42.608;23.362;2023-01-27T11:17:27;150861.53;;;-0.98;100.00
10127;BME280;13080;42.608;23.362;2023-01-27T11:20:01;150856.38;;;-1.00;100.00
10127;BME280;13080;42.608;23.362;2023-01-27T11:22:35;150865.41;;;-0.96;100.00
10127;BME280;13080;42.608;23.362;2023-01-27T11:25:06;150880.81;;;-0.90;100.00
10127;BME280;13080;42.608;23.362;2023-01-27T11:27:54;150874.38;;;-0.93;100.00
10127;BME280;13080;42.608;23.362;2023-01-27T11:30:26;150906.56;;;-0.80;100.00
10127;BME280;13080;42.608;23.362;2023-01-27T11:33:01;150875.66;;;-0.92;100.00
10127;BME280;13080;42.608;23.362;2023-01-27T11:35:31;150831.94;;;-1.10;100.00
10127;BME280;13080;42.608;23.362;2023-01-27T11:37:58;150874.38;;;-0.93;100.00
10127;BME280;13080;42.608;23.362;2023-01-27T11:40:29;150852.50;;;-1.01;100.00
10127;BME280;13080;42.608;23.362;2023-01-27T11:42:57;150865.41;;;-0.96;100.00
10127;BME280;13080;42.608;23.362;2023-01-27T11:45:26;150865.41;;;-0.96;100.00
10127;BME280;13080;42.608;23.362;2023-01-27T11:47:55;150876.97;;;-0.92;100.00
10127;BME280;13080;42.608;23.362;2023-01-27T11:50:26;150892.38;;;-0.86;100.00
10127;BME280;13080;42.608;23.362;2023-01-27T11:52:59;150893.72;;;-0.85;100.00
10127;BME280;13080;42.608;23.362;2023-01-27T11:55:34;150915.53;;;-0.76;100.00
10127;BME280;13080;42.608;23.362;2023-01-27T11:58:11;150924.56;;;-0.73;100.00
10127;BME280;13080;42.608;23.362;2023-01-27T12:00:42;150942.59;;;-0.66;100.00
10127;BME280;13080;42.608;23.362;2023-01-27T12:03:16;150896.25;;;-0.84;100.00
10127;BME280;13080;42.608;23.362;2023-01-27T12:05:47;150936.16;;;-0.68;100.00
10127;BME280;13080;42.608;23.362;2023-01-27T12:08:40;150956.75;;;-0.60;100.00
10127;BME280;13080;42.608;23.362;2023-01-27T12:11:20;150949.00;;;-0.63;100.00
10127;BME280;13080;42.608;23.362;2023-01-27T12:13:53;150965.75;;;-0.56;100.00
10127;BME280;13080;42.608;23.362;2023-01-27T12:16:21;150990.22;;;-0.47;100.00
10127;BME280;13080;42.608;23.362;2023-01-27T12:19:00;150977.31;;;-0.52;100.00
10127;BME280;13080;42.608;23.362;2023-01-27T12:21:50;151004.38;;;-0.41;100.00
10127;BME280;13080;42.608;23.362;2023-01-27T12:24:25;150938.75;;;-0.67;100.00
10127;BME280;13080;42.608;23.362;2023-01-27T12:26:55;150996.66;;;-0.44;100.00
10127;BME280;13080;42.608;23.362;2023-01-27T12:29:25;151012.13;;;-0.38;100.00
10127;BME280;13080;42.608;23.362;2023-01-27T12:31:56;151037.84;;;-0.28;100.00
10127;BME280;13080;42.608;23.362;2023-01-27T12:34:30;151035.28;;;-0.29;100.00
10127;BME280;13080;42.608;23.362;2023-01-27T12:36:59;151012.13;;;-0.38;100.00
10127;BME280;13080;42.608;23.362;2023-01-27T12:39:41;150997.94;;;-0.44;100.00
10127;BME280;13080;42.608;23.362;2023-01-27T12:42:34;150986.34;;;-0.48;100.00
10127;BME280;13080;42.608;23.362;2023-01-27T12:45:18;150999.22;;;-0.43;100.00
10127;BME280;13080;42.608;23.362;2023-01-27T12:47:56;151040.44;;;-0.27;100.00